Time;durP1;ratioP1;P1;durP2;ratioP2;P2;SDS_P1;SDS_P2;PMS_P1;PMS_P2;Temp;Humidity;BMP_temperature;BMP_pressure;BME280_temperature;BME280_humidity;BME280_pressure;Samples;Min_cycle;Max_cycle;Signal;HPM_P1;HPM_P2
2021/05/02 00:00:26;;;;;;;3.17;1.23;;;24.00;36.20;;;;;;5032177;28;20034;-66
2021/05/02 00:02:52;;;;;;;2.40;1.13;;;24.00;36.20;;;;;;5032183;28;20426;-66
2021/05/02 00:05:20;;;;;;;2.65;1.30;;;24.00;36.20;;;;;;5031883;28;20017;-66
2021/05/02 00:07:47;;;;;;;2.08;1.25;;;23.90;36.20;;;;;;5032157;28;20033;-66
2021/05/02 00:10:15;;;;;;;2.67;1.40;;;24.00;36.30;;;;;;5032259;28;20440;-66
2021/05/02 00:12:41;;;;;;;3.55;1.83;;;23.90;36.30;;;;;;5032304;28;20020;-67
2021/05/02 00:15:10;;;;;;;5.22;1.60;;;23.90;36.30;;;;;;5031950;28;20414;-67
2021/05/02 00:17:38;;;;;;;3.75;1.52;;;23.90;36.30;;;;;;5032337;28;20053;-66
2021/05/02 00:20:06;;;;;;;2.03;1.05;;;23.90;36.40;;;;;;5031794;28;20025;-67
2021/05/02 00:22:34;;;;;;;4.72;1.60;;;23.90;36.40;;;;;;5032023;28;20053;-66
2021/05/02 00:25:04;;;;;;;2.35;1.38;;;23.90;36.50;;;;;;5031447;28;20033;-66
2021/05/02 00:27:30;;;;;;;3.40;1.98;;;23.90;36.50;;;;;;5030411;28;20120;-66
2021/05/02 00:29:57;;;;;;;1.52;1.08;;;23.90;36.60;;;;;;5030291;28;20107;-66
2021/05/02 00:32:24;;;;;;;1.73;1.38;;;23.90;36.60;;;;;;5030564;28;20471;-67
2021/05/02 00:34:51;;;;;;;3.90;1.20;;;23.90;36.60;;;;;;5031727;28;20070;-67
2021/05/02 00:37:18;;;;;;;1.52;1.17;;;23.90;36.70;;;;;;5030364;28;20025;-66
2021/05/02 00:39:45;;;;;;;1.88;1.10;;;23.90;36.70;;;;;;5031458;28;20084;-66
2021/05/02 00:42:25;;;;;;;3.13;1.42;;;23.80;36.70;;;;;;5031916;28;20030;-67
2021/05/02 00:45:02;;;;;;;3.17;1.33;;;23.80;36.90;;;;;;5031573;28;20071;-67
2021/05/02 00:47:38;;;;;;;2.15;1.50;;;23.80;36.80;;;;;;5031384;28;20029;-67
2021/05/02 00:50:15;;;;;;;2.60;1.40;;;23.80;36.80;;;;;;5031272;28;20112;-67
2021/05/02 00:52:48;;;;;;;1.30;1.13;;;23.80;36.80;;;;;;5013786;28;20403;-66
2021/05/02 00:56:05;;;;;;;3.35;1.33;;;23.80;36.80;;;;;;5031514;28;20486;-67
2021/05/02 00:58:48;;;;;;;2.78;1.55;;;23.80;36.70;;;;;;5029052;28;20156;-66
2021/05/02 01:01:19;;;;;;;2.47;1.40;;;23.80;36.90;;;;;;5029147;28;20037;-66
2021/05/02 01:03:48;;;;;;;2.38;1.17;;;23.80;36.90;;;;;;5028102;28;20044;-66
2021/05/02 01:06:20;;;;;;;2.08;1.30;;;23.80;36.90;;;;;;5012067;28;20037;-67
2021/05/02 01:08:50;;;;;;;3.80;1.20;;;23.70;36.90;;;;;;5027713;28;20115;-66
2021/05/02 01:11:17;;;;;;;2.42;1.25;;;23.70;36.90;;;;;;5020204;28;20173;-67
2021/05/02 01:14:03;;;;;;;2.10;1.10;;;23.70;36.90;;;;;;5009366;28;20036;-67
2021/05/02 01:16:34;;;;;;;4.15;1.25;;;23.70;37.00;;;;;;5019774;28;20037;-67
2021/05/02 01:19:03;;;;;;;;;;;23.70;37.00;;;;;;5029444;28;20396;-67
2021/05/02 01:21:31;;;;;;;3.03;1.33;;;23.70;36.70;;;;;;5028682;28;19956;-66
2021/05/02 01:23:59;;;;;;;1.42;0.90;;;23.70;36.80;;;;;;5028975;28;20037;-67
2021/05/02 01:26:26;;;;;;;1.17;1.00;;;23.70;36.90;;;;;;5028649;28;20038;-67
2021/05/02 01:28:56;;;;;;;1.88;0.95;;;23.70;36.80;;;;;;5028319;28;20041;-67
2021/05/02 01:31:23;;;;;;;1.38;1.00;;;23.70;37.50;;;;;;5012586;28;20049;-67
2021/05/02 01:33:50;;;;;;;1.95;1.00;;;23.70;36.90;;;;;;5029013;28;20037;-67
2021/05/02 01:36:17;;;;;;;2.35;1.05;;;23.70;37.00;;;;;;5030334;28;20064;-67
2021/05/02 01:38:44;;;;;;;2.13;1.00;;;23.70;37.00;;;;;;5031104;28;20140;-67
2021/05/02 01:41:10;;;;;;;1.70;1.08;;;23.70;37.00;;;;;;5030874;28;20038;-67
2021/05/02 01:43:36;;;;;;;2.03;1.50;;;23.60;37.00;;;;;;5030037;28;20022;-66
2021/05/02 01:46:05;;;;;;;1.15;1.05;;;23.60;36.90;;;;;;5029428;28;20064;-67
2021/05/02 01:48:33;;;;;;;2.85;1.77;;;23.60;37.10;;;;;;5030839;28;20034;-66
2021/05/02 01:51:04;;;;;;;3.55;1.73;;;23.60;37.10;;;;;;5030227;28;20473;-66
2021/05/02 01:53:31;;;;;;;3.25;1.75;;;23.60;37.10;;;;;;5030925;28;20546;-67
2021/05/02 01:56:01;;;;;;;3.28;1.90;;;23.60;37.10;;;;;;5031219;28;20376;-66
2021/05/02 01:58:27;;;;;;;4.55;1.80;;;23.50;37.10;;;;;;5030839;28;20032;-66
2021/05/02 02:01:01;;;;;;;3.80;1.98;;;23.60;37.20;;;;;;5030319;28;20503;-67
2021/05/02 02:03:28;;;;;;;2.78;2.00;;;23.50;37.20;;;;;;5030811;28;20029;-66
2021/05/02 02:05:55;;;;;;;3.17;1.80;;;23.50;37.20;;;;;;5030547;28;20064;-67
2021/05/02 02:08:21;;;;;;;2.25;1.90;;;23.50;37.80;;;;;;5030521;28;20037;-67
2021/05/02 02:10:49;;;;;;;2.85;2.20;;;23.50;37.20;;;;;;5030490;28;21765;-66
2021/05/02 02:13:16;;;;;;;2.90;1.90;;;23.50;37.30;;;;;;5030822;28;20471;-66
2021/05/02 02:15:44;;;;;;;3.22;1.83;;;23.50;37.30;;;;;;5032248;28;20025;-66
2021/05/02 02:18:12;;;;;;;3.97;2.13;;;23.50;37.30;;;;;;5034332;28;20075;-67
2021/05/02 02:20:43;;;;;;;1.83;1.73;;;23.50;37.40;;;;;;5034345;28;20025;-67
2021/05/02 02:23:39;;;;;;;4.43;2.05;;;23.40;37.40;;;;;;5032847;28;20029;-66
2021/05/02 02:26:34;;;;;;;3.65;2.10;;;23.50;37.40;;;;;;5033998;28;20041;-67
2021/05/02 02:29:02;;;;;;;2.55;1.60;;;23.50;37.40;;;;;;5033862;28;20575;-67
2021/05/02 02:31:33;;;;;;;1.90;1.70;;;23.50;37.40;;;;;;5034028;28;20564;-66
2021/05/02 02:33:59;;;;;;;5.68;1.75;;;23.40;37.50;;;;;;5034050;28;20033;-67
2021/05/02 02:36:25;;;;;;;2.83;1.63;;;23.40;37.40;;;;;;5032477;28;20365;-67
2021/05/02 02:38:52;;;;;;;2.85;1.83;;;23.40;37.50;;;;;;5033609;28;20032;-67
2021/05/02 02:41:18;;;;;;;3.97;1.70;;;23.40;37.50;;;;;;5032667;28;20025;-67
2021/05/02 02:43:53;;;;;;;3.55;1.75;;;23.40;37.50;;;;;;5033882;28;20494;-67
2021/05/02 02:46:20;;;;;;;1.95;1.50;;;23.30;37.50;;;;;;5034051;28;20029;-67
2021/05/02 02:48:53;;;;;;;2.88;1.65;;;23.40;37.50;;;;;;5033927;28;20021;-66
2021/05/02 02:51:20;;;;;;;3.40;1.90;;;23.40;37.50;;;;;;5033590;28;20136;-66
2021/05/02 02:53:50;;;;;;;2.55;1.60;;;23.30;37.50;;;;;;5033603;28;20030;-66
2021/05/02 02:56:21;;;;;;;3.97;2.40;;;23.30;37.60;;;;;;5013947;28;20030;-67
2021/05/02 02:59:12;;;;;;;3.80;2.55;;;23.30;37.60;;;;;;5021099;28;20282;-66
2021/05/02 03:01:40;;;;;;;;;;;23.30;37.50;;;;;;5034049;28;20021;-66
2021/05/02 03:04:09;;;;;;;3.17;2.60;;;23.30;37.40;;;;;;5032503;28;19916;-67
2021/05/02 03:06:36;;;;;;;6.07;3.30;;;23.40;37.50;;;;;;5033341;28;20079;-66
2021/05/02 03:09:04;;;;;;;6.38;3.28;;;23.40;37.50;;;;;;5032014;28;20033;-67
2021/05/02 03:11:30;;;;;;;4.75;3.15;;;23.30;37.60;;;;;;5033489;28;20030;-66
2021/05/02 03:13:57;;;;;;;3.65;2.90;;;23.30;37.60;;;;;;5033387;28;20099;-67
2021/05/02 03:16:28;;;;;;;3.08;2.78;;;23.30;37.70;;;;;;5032817;28;20030;-66
2021/05/02 03:19:19;;;;;;;4.47;2.40;;;23.30;37.70;;;;;;5033361;28;20108;-66
2021/05/02 03:21:59;;;;;;;2.80;2.53;;;23.20;37.70;;;;;;5032862;28;20408;-67
2021/05/02 03:24:29;;;;;;;;;;;23.20;37.70;;;;;;5033489;28;20162;-67
2021/05/02 03:27:01;;;;;;;3.63;2.35;;;23.20;37.50;;;;;;5033017;28;19909;-67
2021/05/02 03:29:39;;;;;;;2.75;2.05;;;23.30;37.60;;;;;;5032614;28;20143;-58
2021/05/02 03:32:08;;;;;;;4.13;2.35;;;23.20;37.60;;;;;;5032964;28;20030;-58
2021/05/02 03:34:39;;;;;;;3.47;2.38;;;23.20;37.60;;;;;;5032941;28;20410;-56
2021/05/02 03:37:09;;;;;;;3.22;2.30;;;23.20;37.70;;;;;;5032993;28;20742;-57
2021/05/02 03:39:36;;;;;;;4.00;1.90;;;23.20;37.70;;;;;;5015627;28;20553;-56
2021/05/02 03:42:03;;;;;;;3.38;1.98;;;23.20;37.70;;;;;;5033014;28;20050;-56
2021/05/02 03:44:28;;;;;;;4.55;2.25;;;23.20;37.60;;;;;;5032931;28;20033;-56
2021/05/02 03:46:55;;;;;;;3.45;2.20;;;23.20;38.30;;;;;;5031802;28;20107;-57
2021/05/02 03:49:21;;;;;;;3.35;2.20;;;23.10;37.60;;;;;;5033064;28;20144;-57
2021/05/02 03:51:47;;;;;;;4.47;2.08;;;23.10;37.60;;;;;;5033094;28;20021;-57
2021/05/02 03:54:13;;;;;;;2.70;1.75;;;23.10;37.70;;;;;;5033028;28;20455;-58
2021/05/02 03:56:44;;;;;;;2.92;2.00;;;23.10;37.60;;;;;;5012905;28;20032;-57
2021/05/02 03:59:13;;;;;;;2.65;1.50;;;23.10;37.70;;;;;;5012362;28;20049;-57
2021/05/02 04:02:03;;;;;;;1.92;1.33;;;23.10;37.60;;;;;;5024308;28;20033;-56
2021/05/02 04:04:38;;;;;;;3.17;1.63;;;23.10;37.60;;;;;;5030931;28;20487;-57
2021/05/02 04:07:11;;;;;;;1.92;1.27;;;23.10;37.60;;;;;;5031876;28;20065;-57
2021/05/02 04:09:47;;;;;;;2.83;1.60;;;23.10;37.60;;;;;;5031618;28;20033;-57
2021/05/02 04:12:13;;;;;;;5.68;2.08;;;23.10;37.60;;;;;;5032176;28;20040;-57
2021/05/02 04:14:40;;;;;;;2.03;1.38;;;23.00;37.50;;;;;;5031951;28;20031;-57
2021/05/02 04:17:08;;;;;;;2.20;1.48;;;23.10;37.60;;;;;;5030445;28;20029;-56
2021/05/02 04:19:39;;;;;;;3.67;1.60;;;23.00;37.60;;;;;;5031680;28;20037;-57
2021/05/02 04:22:10;;;;;;;2.38;1.27;;;23.00;37.60;;;;;;5031367;28;20025;-57
2021/05/02 04:24:37;;;;;;;2.20;1.55;;;23.00;37.60;;;;;;5031788;28;20064;-57
2021/05/02 04:27:04;;;;;;;2.13;1.60;;;23.00;37.60;;;;;;5032116;28;20048;-57
2021/05/02 04:29:31;;;;;;;2.55;1.75;;;23.00;37.60;;;;;;5031330;28;20049;-57
2021/05/02 04:31:58;;;;;;;2.42;1.45;;;23.00;37.60;;;;;;5031689;28;20029;-57
2021/05/02 04:34:25;;;;;;;2.05;1.45;;;22.90;37.50;;;;;;5031994;28;20041;-57
2021/05/02 04:36:53;;;;;;;1.63;1.10;;;22.90;37.50;;;;;;5031925;28;20117;-57
2021/05/02 04:39:19;;;;;;;3.58;1.20;;;22.90;37.50;;;;;;5030557;28;20087;-57
2021/05/02 04:41:46;;;;;;;1.63;1.10;;;22.90;37.50;;;;;;5032298;28;20034;-57
2021/05/02 04:44:12;;;;;;;3.40;1.20;;;22.90;37.60;;;;;;5032370;28;20494;-57
2021/05/02 04:46:39;;;;;;;2.63;0.90;;;22.90;37.60;;;;;;5030501;28;20030;-57
2021/05/02 04:49:09;;;;;;;4.25;1.30;;;22.90;37.60;;;;;;5031804;28;20032;-57
2021/05/02 04:51:36;;;;;;;1.63;1.15;;;22.90;37.70;;;;;;5031649;28;20030;-57
2021/05/02 04:54:02;;;;;;;2.38;1.20;;;22.90;37.70;;;;;;5032218;28;20021;-57
2021/05/02 04:56:28;;;;;;;2.15;1.27;;;22.80;37.60;;;;;;5030264;28;20052;-57
2021/05/02 04:58:54;;;;;;;2.38;1.48;;;22.80;37.60;;;;;;5030560;28;20107;-58
2021/05/02 05:01:22;;;;;;;1.25;1.00;;;22.80;37.70;;;;;;5031488;28;20033;-57
2021/05/02 05:03:48;;;;;;;2.10;1.33;;;22.80;37.70;;;;;;5031955;28;20037;-58
2021/05/02 05:06:14;;;;;;;2.35;1.48;;;22.80;37.70;;;;;;5031607;28;20119;-57
2021/05/02 05:08:40;;;;;;;2.97;1.35;;;22.80;37.80;;;;;;5031602;28;20547;-58
2021/05/02 05:11:07;;;;;;;2.50;1.33;;;22.80;37.80;;;;;;5031757;28;20029;-58
2021/05/02 05:13:33;;;;;;;1.50;1.38;;;22.80;37.90;;;;;;5031585;28;20522;-57
2021/05/02 05:16:00;;;;;;;2.67;1.63;;;22.70;37.80;;;;;;5031525;28;20036;-57
2021/05/02 05:18:27;;;;;;;2.28;1.55;;;22.80;37.90;;;;;;5030266;28;20120;-57
2021/05/02 05:20:55;;;;;;;2.10;1.65;;;22.80;37.90;;;;;;5031523;28;20053;-57
2021/05/02 05:23:21;;;;;;;3.20;1.90;;;22.70;37.90;;;;;;5031056;28;20029;-58
2021/05/02 05:25:48;;;;;;;2.08;1.85;;;22.70;38.00;;;;;;5030148;28;20035;-57
2021/05/02 05:28:14;;;;;;;3.78;1.90;;;22.70;37.90;;;;;;5030830;28;20056;-57
2021/05/02 05:30:40;;;;;;;2.88;2.40;;;22.70;37.90;;;;;;5031553;28;20444;-57
2021/05/02 05:33:07;;;;;;;3.42;2.40;;;22.70;38.00;;;;;;5031754;28;20060;-56
2021/05/02 05:35:34;;;;;;;3.28;1.90;;;22.70;38.00;;;;;;5031455;28;20474;-57
2021/05/02 05:38:01;;;;;;;4.75;1.92;;;22.70;38.00;;;;;;5030363;28;20116;-57
2021/05/02 05:40:28;;;;;;;3.13;2.17;;;22.70;38.10;;;;;;5031294;28;20035;-57
2021/05/02 05:42:55;;;;;;;4.55;2.35;;;22.70;38.10;;;;;;5031593;28;20061;-56
2021/05/02 05:45:22;;;;;;;4.00;1.95;;;22.60;38.00;;;;;;5031510;28;20037;-57
2021/05/02 05:47:51;;;;;;;3.70;1.92;;;22.60;38.10;;;;;;5031346;28;20456;-57
2021/05/02 05:50:19;;;;;;;3.83;2.15;;;22.60;38.10;;;;;;5031903;28;20025;-57
2021/05/02 05:52:46;;;;;;;5.47;4.65;;;22.60;38.00;;;;;;5031930;28;20076;-57
2021/05/02 05:55:15;;;;;;;16.90;15.13;;;22.60;38.00;;;;;;5035911;28;20047;-57
2021/05/02 05:57:44;;;;;;;23.33;20.92;;;22.60;37.90;;;;;;5035077;28;20108;-57
2021/05/02 06:00:11;;;;;;;25.60;20.80;;;22.60;37.80;;;;;;5033524;28;20036;-57
2021/05/02 06:02:42;;;;;;;20.92;18.30;;;22.60;37.80;;;;;;5034250;28;20063;-57
2021/05/02 06:05:08;;;;;;;17.65;15.95;;;22.50;37.90;;;;;;5032979;28;20037;-57
2021/05/02 06:07:34;;;;;;;15.02;13.52;;;22.50;38.10;;;;;;5031845;28;20051;-56
2021/05/02 06:10:00;;;;;;;15.10;13.57;;;22.50;38.80;;;;;;5034316;28;20025;-56
2021/05/02 06:12:27;;;;;;;14.75;13.38;;;22.50;38.30;;;;;;5034742;28;20024;-57
2021/05/02 06:14:53;;;;;;;14.68;13.18;;;22.50;38.30;;;;;;5033369;28;20407;-56
2021/05/02 06:17:19;;;;;;;12.93;11.45;;;22.50;38.30;;;;;;5033442;28;20066;-57
2021/05/02 06:19:45;;;;;;;11.77;9.32;;;22.50;38.30;;;;;;5034348;28;20030;-57
2021/05/02 06:22:11;;;;;;;11.80;10.63;;;22.60;38.30;;;;;;5034091;28;20083;-57
2021/05/02 06:24:37;;;;;;;10.85;8.63;;;22.50;38.10;;;;;;5034620;28;20355;-57
2021/05/02 06:27:03;;;;;;;9.50;8.52;;;22.50;38.00;;;;;;5033914;28;20025;-57
2021/05/02 06:29:30;;;;;;;10.77;9.25;;;22.50;38.00;;;;;;5033870;28;20131;-57
2021/05/02 06:31:56;;;;;;;9.73;8.77;;;22.50;38.10;;;;;;5033277;28;20029;-57
2021/05/02 06:34:22;;;;;;;10.25;8.07;;;22.50;38.70;;;;;;5032028;28;20631;-66
2021/05/02 06:36:48;;;;;;;8.07;6.97;;;22.50;38.20;;;;;;5032350;28;20041;-66
2021/05/02 06:39:14;;;;;;;7.60;6.80;;;22.50;38.20;;;;;;5033779;28;20443;-66
2021/05/02 06:41:44;;;;;;;7.57;6.43;;;22.50;38.20;;;;;;5033517;28;20148;-66
2021/05/02 06:44:12;;;;;;;6.63;6.03;;;22.50;38.20;;;;;;5033749;28;20134;-66
2021/05/02 06:46:39;;;;;;;6.72;5.60;;;22.50;38.20;;;;;;5033593;28;20057;-57
2021/05/02 06:49:07;;;;;;;8.50;5.40;;;22.50;38.30;;;;;;5032278;28;20045;-56
2021/05/02 06:51:34;;;;;;;5.70;4.45;;;22.50;38.40;;;;;;5032864;28;20014;-57
2021/05/02 06:54:00;;;;;;;5.65;5.05;;;22.50;38.50;;;;;;5033854;28;20091;-57
2021/05/02 06:56:27;;;;;;;8.30;4.93;;;22.50;38.60;;;;;;5033729;28;20018;-57
2021/05/02 06:58:54;;;;;;;7.97;5.53;;;22.50;38.70;;;;;;5033666;28;20033;-56
2021/05/02 07:01:22;;;;;;;8.73;5.70;;;22.50;38.80;;;;;;5033185;28;20099;-56
2021/05/02 07:03:49;;;;;;;5.65;4.50;;;22.60;38.90;;;;;;5033333;28;20456;-56
2021/05/02 07:06:15;;;;;;;5.72;4.35;;;22.60;38.90;;;;;;5033088;28;20635;-57
2021/05/02 07:08:41;;;;;;;5.15;4.10;;;22.60;38.90;;;;;;5032545;28;20181;-57
2021/05/02 07:11:08;;;;;;;7.57;3.90;;;22.60;38.90;;;;;;5027503;28;20325;-59
2021/05/02 07:13:34;;;;;;;7.93;3.72;;;22.70;39.00;;;;;;5032201;28;20029;-60
2021/05/02 07:16:01;;;;;;;6.13;4.45;;;22.70;39.00;;;;;;5028560;28;20422;-59
2021/05/02 07:18:35;;;;;;;8.90;4.40;;;22.80;39.00;;;;;;5013860;28;20026;-59
2021/05/02 07:21:01;;;;;;;4.85;4.00;;;22.80;39.10;;;;;;5013761;28;20040;-60
2021/05/02 07:23:27;;;;;;;6.15;4.45;;;22.80;39.10;;;;;;5012275;28;20033;-60
2021/05/02 07:25:54;;;;;;;6.63;4.65;;;22.80;39.10;;;;;;5017645;28;20447;-60
2021/05/02 07:28:20;;;;;;;6.05;3.88;;;22.90;39.10;;;;;;5032304;28;20079;-61
2021/05/02 07:30:47;;;;;;;5.43;3.05;;;22.90;39.10;;;;;;5033007;28;20034;-60
2021/05/02 07:33:13;;;;;;;7.28;3.38;;;22.90;39.10;;;;;;5032875;28;20029;-60
2021/05/02 07:35:39;;;;;;;3.95;2.75;;;22.90;39.10;;;;;;5031584;28;20033;-60
2021/05/02 07:38:05;;;;;;;4.32;3.10;;;22.90;39.10;;;;;;5032950;28;20431;-60
2021/05/02 07:40:32;;;;;;;9.55;3.05;;;23.00;39.10;;;;;;5030850;28;20025;-60
2021/05/02 07:42:58;;;;;;;4.88;2.33;;;23.00;39.10;;;;;;5031345;28;20025;-60
2021/05/02 07:45:24;;;;;;;6.03;2.45;;;23.10;39.10;;;;;;5030939;28;20045;-60
2021/05/02 07:47:50;;;;;;;2.97;2.33;;;23.10;39.10;;;;;;5032022;28;20034;-59
2021/05/02 07:50:16;;;;;;;3.63;2.00;;;23.10;39.00;;;;;;5032488;28;20052;-59
2021/05/02 07:52:42;;;;;;;2.58;2.10;;;23.20;39.10;;;;;;5032391;28;20026;-58
2021/05/02 07:55:10;;;;;;;5.20;2.10;;;23.20;39.00;;;;;;5032900;28;20493;-61
2021/05/02 07:57:36;;;;;;;15.65;2.13;;;23.20;38.90;;;;;;5032339;28;20030;-62
2021/05/02 08:00:04;;;;;;;5.43;2.42;;;23.20;38.90;;;;;;5032496;28;20033;-62
2021/05/02 08:02:40;;;;;;;2.90;1.98;;;23.20;38.80;;;;;;5031895;28;20423;-60
2021/05/02 08:05:08;;;;;;;3.75;1.85;;;23.30;38.80;;;;;;5032450;28;20472;-60
2021/05/02 08:07:35;;;;;;;8.88;7.40;;;23.30;38.70;;;;;;5013874;28;20036;-60
2021/05/02 08:10:01;;;;;;;10.77;8.35;;;23.30;38.60;;;;;;5031911;28;20570;-61
2021/05/02 08:12:28;;;;;;;10.45;8.65;;;23.30;38.60;;;;;;5031498;28;20083;-61
2021/05/02 08:14:54;;;;;;;12.10;7.95;;;23.30;38.60;;;;;;5031603;28;20065;-61
2021/05/02 08:17:19;;;;;;;17.08;15.05;;;23.30;38.60;;;;;;5031479;28;20439;-60
2021/05/02 08:19:45;;;;;;;15.70;14.05;;;23.40;38.60;;;;;;5031005;28;20032;-59
2021/05/02 08:22:11;;;;;;;10.70;9.25;;;23.30;38.50;;;;;;5031287;28;20037;-58
2021/05/02 08:24:37;;;;;;;11.40;7.80;;;23.40;38.60;;;;;;5031387;28;20115;-58
2021/05/02 08:27:04;;;;;;;7.75;4.50;;;23.40;38.50;;;;;;5029888;28;20021;-59
2021/05/02 08:29:30;;;;;;;5.22;3.30;;;23.40;38.40;;;;;;5031087;28;20049;-59
2021/05/02 08:31:56;;;;;;;8.73;3.30;;;23.40;38.30;;;;;;5029749;28;20088;-59
2021/05/02 08:34:22;;;;;;;3.75;2.22;;;23.40;38.30;;;;;;5030159;28;20033;-59
2021/05/02 08:36:48;;;;;;;5.93;2.08;;;23.50;38.30;;;;;;5029724;28;20033;-59
2021/05/02 08:39:14;;;;;;;4.90;2.03;;;23.50;38.20;;;;;;5031269;28;20033;-58
2021/05/02 08:41:40;;;;;;;2.90;2.47;;;23.50;38.10;;;;;;5031347;28;20522;-59
2021/05/02 08:44:07;;;;;;;3.35;1.60;;;23.50;38.10;;;;;;5031689;28;20459;-59
2021/05/02 08:46:35;;;;;;;3.50;1.70;;;23.50;38.10;;;;;;5031139;28;20113;-58
2021/05/02 08:49:04;;;;;;;1.88;1.27;;;23.50;38.00;;;;;;5031473;28;20044;-59
2021/05/02 08:51:31;;;;;;;2.25;1.52;;;23.50;37.90;;;;;;5031185;28;20095;-59
2021/05/02 08:53:57;;;;;;;4.18;1.33;;;23.60;37.90;;;;;;5031134;28;20037;-59
2021/05/02 08:56:23;;;;;;;3.60;1.58;;;23.60;37.80;;;;;;5029609;28;20033;-57
2021/05/02 08:58:49;;;;;;;5.63;1.58;;;23.70;37.90;;;;;;5031125;28;20033;-56
2021/05/02 09:01:26;;;;;;;4.55;1.90;;;23.70;37.90;;;;;;5030887;28;20475;-57
2021/05/02 09:03:52;;;;;;;3.25;1.30;;;23.70;37.90;;;;;;5030953;28;20118;-57
2021/05/02 09:06:29;;;;;;;3.92;1.50;;;23.70;37.90;;;;;;5030998;28;20030;-57
2021/05/02 09:08:57;;;;;;;2.40;1.67;;;23.70;37.90;;;;;;5030671;28;20038;-55
2021/05/02 09:11:40;;;;;;;13.52;10.88;;;23.70;37.90;;;;;;5030819;28;20030;-56
2021/05/02 09:14:10;;;;;;;18.15;14.90;;;23.70;37.80;;;;;;5029251;28;20091;-56
2021/05/02 09:16:46;;;;;;;;;;;23.80;37.90;;;;;;5031322;28;20041;-56
2021/05/02 09:19:13;;;;;;;10.07;7.80;;;23.80;38.10;;;;;;5030629;28;19913;-56
2021/05/02 09:21:39;;;;;;;5.43;4.93;;;23.90;37.80;;;;;;5030787;28;20442;-56
2021/05/02 09:24:08;;;;;;;5.38;3.88;;;23.90;37.80;;;;;;5030414;28;20037;-57
2021/05/02 09:26:36;;;;;;;4.68;3.33;;;24.00;37.90;;;;;;5030298;28;20036;-56
2021/05/02 09:29:07;;;;;;;3.65;2.78;;;23.90;37.80;;;;;;5012151;28;20468;-56
2021/05/02 09:31:36;;;;;;;4.82;2.30;;;24.00;37.80;;;;;;5010837;28;20096;-56
2021/05/02 09:34:15;;;;;;;9.95;2.58;;;24.00;37.90;;;;;;5010682;28;20029;-58
2021/05/02 09:37:03;;;;;;;3.03;1.70;;;24.00;38.30;;;;;;5011003;28;20065;-58
2021/05/02 09:39:48;;;;;;;5.47;1.75;;;24.10;37.90;;;;;;5010835;28;20038;-56
2021/05/02 09:42:14;;;;;;;5.88;1.70;;;24.10;38.00;;;;;;5010703;28;20420;-57
2021/05/02 09:44:49;;;;;;;3.03;1.50;;;24.10;37.70;;;;;;5010901;28;20038;-56
2021/05/02 09:47:28;;;;;;;2.20;1.50;;;24.10;37.40;;;;;;5010879;28;20060;-56
2021/05/02 09:50:14;;;;;;;3.00;1.23;;;24.20;37.10;;;;;;5010864;28;20037;-56
2021/05/02 09:53:02;;;;;;;1.58;1.00;;;24.20;36.90;;;;;;5010485;28;20115;-55
2021/05/02 09:55:35;;;;;;;5.78;1.85;;;24.30;35.90;;;;;;5009429;28;20062;-56
2021/05/02 09:58:09;;;;;;;4.50;2.28;;;24.30;36.30;;;;;;5017346;28;20116;-56
2021/05/02 10:00:48;;;;;;;2.90;2.10;;;24.30;36.30;;;;;;5030297;28;20033;-55
2021/05/02 10:03:16;;;;;;;3.45;1.27;;;24.30;36.30;;;;;;5030058;28;20033;-56
2021/05/02 10:06:00;;;;;;;3.72;1.63;;;24.40;35.60;;;;;;5030159;28;20104;-55
2021/05/02 10:08:35;;;;;;;2.88;1.48;;;24.30;35.30;;;;;;5029961;28;20034;-56
2021/05/02 10:11:06;;;;;;;3.75;1.60;;;24.40;35.80;;;;;;5030234;28;20040;-56
2021/05/02 10:13:34;;;;;;;2.75;1.20;;;24.40;35.80;;;;;;5028784;28;20026;-55
2021/05/02 10:16:00;;;;;;;1.60;1.35;;;24.50;35.80;;;;;;5030205;28;20044;-55
2021/05/02 10:18:26;;;;;;;2.55;1.73;;;24.50;35.90;;;;;;5029940;28;20104;-56
2021/05/02 10:20:53;;;;;;;4.38;1.77;;;24.50;35.70;;;;;;5030322;28;20444;-55
2021/05/02 10:23:19;;;;;;;4.07;1.63;;;24.60;35.50;;;;;;5030116;28;20021;-55
2021/05/02 10:25:49;;;;;;;3.28;1.70;;;24.60;35.40;;;;;;5030041;28;20068;-55
2021/05/02 10:28:16;;;;;;;2.03;1.80;;;24.70;35.00;;;;;;5030034;28;20141;-55
2021/05/02 10:30:49;;;;;;;5.55;1.60;;;24.70;34.70;;;;;;5029816;28;20060;-55
2021/05/02 10:33:29;;;;;;;1.90;1.48;;;24.80;34.00;;;;;;5030238;28;20037;-55
2021/05/02 10:35:59;;;;;;;1.90;1.30;;;24.80;34.00;;;;;;5030303;28;20357;-55
2021/05/02 10:38:43;;;;;;;2.25;1.45;;;24.90;34.00;;;;;;5033507;28;20116;-55
2021/05/02 10:41:31;;;;;;;2.25;1.38;;;24.90;33.80;;;;;;5033648;28;20174;-54
2021/05/02 10:44:18;;;;;;;3.08;1.85;;;25.00;33.50;;;;;;5033412;28;20029;-55
2021/05/02 10:46:44;;;;;;;3.38;2.13;;;25.00;33.40;;;;;;5032103;28;20029;-54
2021/05/02 10:49:31;;;;;;;3.13;2.05;;;25.10;33.40;;;;;;5033174;28;20052;-55
2021/05/02 10:52:30;;;;;;;2.38;1.65;;;25.10;33.50;;;;;;5033093;28;20028;-56
2021/05/02 10:55:17;;;;;;;3.58;2.22;;;25.20;33.80;;;;;;5032340;28;20461;-56
2021/05/02 10:57:43;;;;;;;22.52;20.23;;;25.20;33.70;;;;;;5033458;28;20040;-55
2021/05/02 11:00:13;;;;;;;61.78;55.28;;;25.30;33.80;;;;;;5033086;28;20059;-58
2021/05/02 11:02:47;;;;;;;106.30;95.03;;;25.30;33.30;;;;;;5033117;28;20061;-56
2021/05/02 11:05:16;;;;;;;81.22;72.90;;;25.30;33.60;;;;;;5032962;28;20044;-56
2021/05/02 11:07:44;;;;;;;55.42;49.70;;;25.30;33.50;;;;;;5033184;28;20025;-56
2021/05/02 11:10:19;;;;;;;39.28;35.28;;;25.30;33.60;;;;;;5032922;28;20039;-56
2021/05/02 11:12:48;;;;;;;23.70;21.30;;;25.40;33.60;;;;;;5032914;28;20104;-56
2021/05/02 11:15:26;;;;;;;13.55;12.15;;;25.50;33.80;;;;;;5032997;28;20474;-56
2021/05/02 11:17:53;;;;;;;12.30;11.10;;;25.50;33.70;;;;;;5029679;28;20021;-56
2021/05/02 11:20:45;;;;;;;9.02;8.07;;;25.50;33.70;;;;;;5032611;28;20124;-56
2021/05/02 11:23:11;;;;;;;6.22;5.00;;;25.50;33.80;;;;;;5027923;28;20061;-56
2021/05/02 11:25:44;;;;;;;5.55;4.18;;;25.60;33.60;;;;;;5032808;28;20035;-56
2021/05/02 11:28:11;;;;;;;4.85;3.60;;;25.60;33.50;;;;;;5032582;28;20105;-55
2021/05/02 11:30:47;;;;;;;4.28;3.88;;;25.70;33.50;;;;;;5032194;28;20136;-55
2021/05/02 11:33:24;;;;;;;2.75;2.22;;;25.70;33.40;;;;;;5032935;28;20111;-56
2021/05/02 11:35:54;;;;;;;3.67;2.00;;;25.80;33.10;;;;;;5032763;28;20033;-56
2021/05/02 11:38:22;;;;;;;5.40;1.57;;;25.80;33.80;;;;;;5032781;28;20026;-56
2021/05/02 11:40:59;;;;;;;2.65;1.30;;;25.80;34.10;;;;;;5032259;28;20033;-56
2021/05/02 11:43:28;;;;;;;5.20;1.77;;;25.80;34.50;;;;;;5038205;28;20032;-56
2021/05/02 11:45:59;;;;;;;12.52;2.17;;;25.90;34.70;;;;;;5032875;28;20038;-57
2021/05/02 11:48:32;;;;;;;14.63;2.72;;;25.90;34.90;;;;;;5032529;28;20029;-56
2021/05/02 11:51:00;;;;;;;12.32;2.80;;;25.90;35.00;;;;;;5032348;28;20036;-56
2021/05/02 11:53:41;;;;;;;17.63;2.40;;;25.90;35.10;;;;;;5031006;28;20372;-56
2021/05/02 11:56:20;;;;;;;15.27;2.30;;;26.00;35.30;;;;;;5032627;28;20414;-56
2021/05/02 11:58:47;;;;;;;13.45;2.40;;;26.00;35.30;;;;;;5032415;28;20029;-56
2021/05/02 12:01:24;;;;;;;7.22;1.88;;;26.00;35.30;;;;;;5032630;28;20025;-56
2021/05/02 12:03:51;;;;;;;7.05;2.38;;;26.00;35.30;;;;;;5032205;28;20052;-57
2021/05/02 12:06:37;;;;;;;6.75;1.70;;;26.00;35.30;;;;;;5046950;28;20064;-57
2021/05/02 12:09:13;;;;;;;4.35;1.90;;;26.00;35.30;;;;;;5052274;28;20068;-55
2021/05/02 12:11:40;;;;;;;6.22;1.80;;;26.10;35.30;;;;;;5042507;28;20055;-55
2021/05/02 12:14:07;;;;;;;5.70;1.63;;;26.10;35.40;;;;;;5032210;28;20029;-56
2021/05/02 12:16:33;;;;;;;8.25;1.85;;;26.10;35.30;;;;;;5032165;28;20049;-56
2021/05/02 12:19:06;;;;;;;7.25;1.85;;;26.10;35.30;;;;;;5032128;28;20032;-55
2021/05/02 12:21:40;;;;;;;5.70;1.60;;;26.10;35.30;;;;;;5032189;28;20036;-56
2021/05/02 12:24:19;;;;;;;5.32;1.58;;;26.10;35.40;;;;;;5031728;28;20099;-55
2021/05/02 12:26:56;;;;;;;4.47;2.08;;;26.10;35.40;;;;;;5030605;28;20353;-55
2021/05/02 12:29:25;;;;;;;3.67;1.38;;;26.10;35.40;;;;;;5030914;28;20392;-55
2021/05/02 12:32:02;;;;;;;7.75;1.50;;;26.10;35.50;;;;;;5035893;28;20071;-54
2021/05/02 12:34:30;;;;;;;5.50;1.70;;;26.10;35.60;;;;;;5038978;28;20499;-55
2021/05/02 12:36:58;;;;;;;12.32;2.10;;;26.10;35.60;;;;;;5037498;28;20021;-55
2021/05/02 12:39:35;;;;;;;4.05;2.10;;;26.10;35.70;;;;;;5033008;28;20426;-56
2021/05/02 12:42:01;;;;;;;4.25;1.65;;;26.10;35.80;;;;;;5031518;28;20494;-55
2021/05/02 12:44:28;;;;;;;1.42;1.15;;;26.20;35.90;;;;;;5032255;28;20051;-55
2021/05/02 12:46:57;;;;;;;7.15;2.00;;;26.10;35.90;;;;;;5031645;28;20518;-55
2021/05/02 12:49:31;;;;;;;3.47;1.40;;;26.20;36.00;;;;;;5031715;28;20807;-55
2021/05/02 12:52:19;;;;;;;4.82;1.60;;;26.20;36.10;;;;;;5032161;28;20383;-55
2021/05/02 12:54:45;;;;;;;5.20;1.88;;;26.20;36.10;;;;;;5031533;28;20526;-55
2021/05/02 12:57:12;;;;;;;3.30;1.38;;;26.20;36.20;;;;;;5030290;28;20029;-55
2021/05/02 13:02:15;;;;;;;4.15;1.73;;;26.20;36.30;;;;;;5031919;28;20029;-55